^^
Station Historical Data
Daily Summary for November 26, 2017 Units:  Both    English   Metric
« Previous Day
Next Day »
Daily Weekly Monthly Yearly Custom
  High: Low: Average:
Temperature: TemperatureF °F /  -17.8 °C 64.9 °F /  18.3 °C 78.9 °F /  26.1 °C
Dew Point: DewpointF °F /  -17.8 °C 11.8 °F /  -11.2 °C 22.1 °F /  -5.5 °C
Humidity: Humidity% 5% 13%
Wind Speed: WindSpeedMPHmph /  0km/h - 2.3mph /  3.7km/h
Wind Gust: WindSpeedGustMPHmph /  0km/h - -
Wind- - SSE
Pressure: PressureIn in /  0 hPa 29.60 in /  1002.3 hPa -
Precipitation: 0.00 in /  0 mm    
Historical Graphs
 
 
Tabular Data for November 26, 2017
Time Temperature Dew Point Pressure Wind Wind Speed Wind Gust Humidity Rainfall Rate (Hourly) solar Conditions
TemperatureF °F /  -17.8 °C DewpointF °F /  -17.8 °C PressureInin /  0hPa Calm     Humidity% HourlyPrecipInin /  0mm SolarRadiationWatts/m^2 W/m2 Conditions
00:02 70.9 °F /  21.6 °C 33.3 °F /  0.7 °C 29.69in /  1005.3hPa NW 0.9mph /  1.4km/h 3.0mph /  4.8km/h 25% 0.00in /  0mm 0.0 W/m2
00:07 70.7 °F /  21.5 °C 32.2 °F /  0.1 °C 29.70in /  1005.6hPa Calm   1.0mph /  1.6km/h 24% 0.00in /  0mm 0.0 W/m2
00:12 70.9 °F /  21.6 °C 33.3 °F /  0.7 °C 29.69in /  1005.3hPa NNW 2.9mph /  4.7km/h 3.0mph /  4.8km/h 25% 0.00in /  0mm 0.0 W/m2
00:17 70.5 °F /  21.4 °C 33.1 °F /  0.6 °C 29.70in /  1005.6hPa Calm   4.0mph /  6.4km/h 25% 0.00in /  0mm 0.0 W/m2
00:22 70.5 °F /  21.4 °C 33.1 °F /  0.6 °C 29.69in /  1005.3hPa Calm   1.0mph /  1.6km/h 25% 0.00in /  0mm 0.0 W/m2
00:27 70.3 °F /  21.3 °C 32.9 °F /  0.5 °C 29.69in /  1005.3hPa NE 2.0mph /  3.2km/h 4.0mph /  6.4km/h 25% 0.00in /  0mm 0.0 W/m2
00:32 70.5 °F /  21.4 °C 33.1 °F /  0.6 °C 29.69in /  1005.3hPa Calm   4.0mph /  6.4km/h 25% 0.00in /  0mm 0.0 W/m2
00:38 70.5 °F /  21.4 °C 33.1 °F /  0.6 °C 29.69in /  1005.3hPa Calm   4.0mph /  6.4km/h 25% 0.00in /  0mm 0.0 W/m2
00:43 70.5 °F /  21.4 °C 33.1 °F /  0.6 °C 29.69in /  1005.3hPa SSE 2.9mph /  4.7km/h 7.0mph /  11.3km/h 25% 0.00in /  0mm 0.0 W/m2
00:48 70.7 °F /  21.5 °C 33.1 °F /  0.6 °C 29.69in /  1005.3hPa SSW 2.9mph /  4.7km/h 8.0mph /  12.9km/h 25% 0.00in /  0mm 0.0 W/m2
00:53 70.7 °F /  21.5 °C 33.1 °F /  0.6 °C 29.69in /  1005.3hPa SSE 2.9mph /  4.7km/h 5.0mph /  8km/h 25% 0.00in /  0mm 0.0 W/m2
00:58 70.5 °F /  21.4 °C 33.1 °F /  0.6 °C 29.68in /  1005hPa Calm   2.0mph /  3.2km/h 25% 0.00in /  0mm 0.0 W/m2
01:03 70.5 °F /  21.4 °C 32.0 °F /  0 °C 29.68in /  1005hPa Calm   7.0mph /  11.3km/h 24% 0.00in /  0mm 0.0 W/m2
01:08 70.5 °F /  21.4 °C 32.0 °F /  0 °C 29.68in /  1005hPa SSW 2.9mph /  4.7km/h 12.0mph /  19.3km/h 24% 0.00in /  0mm 0.0 W/m2
01:13 70.5 °F /  21.4 °C 32.0 °F /  0 °C 29.68in /  1005hPa South 4.0mph /  6.4km/h 8.0mph /  12.9km/h 24% 0.00in /  0mm 0.0 W/m2
01:18 70.5 °F /  21.4 °C 32.0 °F /  0 °C 29.68in /  1005hPa SE 2.0mph /  3.2km/h 6.0mph /  9.7km/h 24% 0.00in /  0mm 0.0 W/m2
01:24 70.3 °F /  21.3 °C 32.9 °F /  0.5 °C 29.67in /  1004.6hPa Calm   7.0mph /  11.3km/h 25% 0.00in /  0mm 0.0 W/m2
01:29 70.3 °F /  21.3 °C 31.8 °F /  -0.1 °C 29.67in /  1004.6hPa SE 0.9mph /  1.4km/h 4.0mph /  6.4km/h 24% 0.00in /  0mm 0.0 W/m2
01:39 70.3 °F /  21.3 °C 31.8 °F /  -0.1 °C 29.67in /  1004.6hPa ESE 6.9mph /  11.1km/h 8.0mph /  12.9km/h 24% 0.00in /  0mm 0.0 W/m2
01:44 70.2 °F /  21.2 °C 31.6 °F /  -0.2 °C 29.67in /  1004.6hPa SSW 4.9mph /  7.9km/h 13.0mph /  20.9km/h 24% 0.00in /  0mm 0.0 W/m2
01:49 70.2 °F /  21.2 °C 31.6 °F /  -0.2 °C 29.67in /  1004.6hPa SE 4.0mph /  6.4km/h 8.0mph /  12.9km/h 24% 0.00in /  0mm 0.0 W/m2
01:54 70.2 °F /  21.2 °C 31.6 °F /  -0.2 °C 29.67in /  1004.6hPa SSE 2.9mph /  4.7km/h 9.0mph /  14.5km/h 24% 0.00in /  0mm 0.0 W/m2
01:59 70.2 °F /  21.2 °C 30.6 °F /  -0.8 °C 29.67in /  1004.6hPa WSW 6.9mph /  11.1km/h 11.0mph /  17.7km/h 23% 0.00in /  0mm 0.0 W/m2
02:04 70.3 °F /  21.3 °C 30.7 °F /  -0.7 °C 29.67in /  1004.6hPa SW 0.9mph /  1.4km/h 12.0mph /  19.3km/h 23% 0.00in /  0mm 0.0 W/m2
02:09 70.3 °F /  21.3 °C 31.8 °F /  -0.1 °C 29.67in /  1004.6hPa SW 0.9mph /  1.4km/h 10.0mph /  16.1km/h 24% 0.00in /  0mm 0.0 W/m2
02:15 70.3 °F /  21.3 °C 31.8 °F /  -0.1 °C 29.67in /  1004.6hPa South 0.9mph /  1.4km/h 8.0mph /  12.9km/h 24% 0.00in /  0mm 0.0 W/m2
02:20 70.2 °F /  21.2 °C 30.6 °F /  -0.8 °C 29.67in /  1004.6hPa ESE 12.1mph /  19.5km/h 15.0mph /  24.1km/h 23% 0.00in /  0mm 0.0 W/m2
02:25 70.2 °F /  21.2 °C 30.6 °F /  -0.8 °C 29.66in /  1004.3hPa SW 2.0mph /  3.2km/h 10.0mph /  16.1km/h 23% 0.00in /  0mm 0.0 W/m2
02:30 70.2 °F /  21.2 °C 31.6 °F /  -0.2 °C 29.66in /  1004.3hPa Calm   6.0mph /  9.7km/h 24% 0.00in /  0mm 0.0 W/m2
02:35 70.0 °F /  21.1 °C 30.6 °F /  -0.8 °C 29.66in /  1004.3hPa SSE 10.1mph /  16.3km/h 15.0mph /  24.1km/h 23% 0.00in /  0mm 0.0 W/m2
02:40 70.0 °F /  21.1 °C 30.6 °F /  -0.8 °C 29.66in /  1004.3hPa SW 6.0mph /  9.7km/h 9.0mph /  14.5km/h 23% 0.00in /  0mm 0.0 W/m2
02:45 69.8 °F /  21 °C 30.4 °F /  -0.9 °C 29.66in /  1004.3hPa SSE 6.0mph /  9.7km/h 12.0mph /  19.3km/h 23% 0.00in /  0mm 0.0 W/m2
02:50 69.8 °F /  21 °C 30.4 °F /  -0.9 °C 29.66in /  1004.3hPa Calm   7.0mph /  11.3km/h 23% 0.00in /  0mm 0.0 W/m2
02:56 69.6 °F /  20.9 °C 29.1 °F /  -1.6 °C 29.66in /  1004.3hPa ESE 8.1mph /  13km/h 15.0mph /  24.1km/h 22% 0.00in /  0mm 0.0 W/m2
03:01 69.8 °F /  21 °C 29.3 °F /  -1.5 °C 29.65in /  1003.9hPa SE 6.0mph /  9.7km/h 13.0mph /  20.9km/h 22% 0.00in /  0mm 0.0 W/m2
03:06 69.6 °F /  20.9 °C 26.8 °F /  -2.9 °C 29.66in /  1004.3hPa SSE 4.9mph /  7.9km/h 10.0mph /  16.1km/h 20% 0.00in /  0mm 0.0 W/m2
03:12 69.6 °F /  20.9 °C 26.8 °F /  -2.9 °C 29.65in /  1003.9hPa SSE 0.9mph /  1.4km/h 9.0mph /  14.5km/h 20% 0.00in /  0mm 0.0 W/m2
03:17 69.6 °F /  20.9 °C 26.8 °F /  -2.9 °C 29.65in /  1003.9hPa Calm   8.0mph /  12.9km/h 20% 0.00in /  0mm 0.0 W/m2
03:22 69.4 °F /  20.8 °C 25.3 °F /  -3.7 °C 29.65in /  1003.9hPa SSE 4.9mph /  7.9km/h 6.0mph /  9.7km/h 19% 0.00in /  0mm 0.0 W/m2
03:27 69.4 °F /  20.8 °C 24.1 °F /  -4.4 °C 29.65in /  1003.9hPa South 2.0mph /  3.2km/h 9.0mph /  14.5km/h 18% 0.00in /  0mm 0.0 W/m2
03:32 69.4 °F /  20.8 °C 22.6 °F /  -5.2 °C 29.65in /  1003.9hPa South 2.0mph /  3.2km/h 8.0mph /  12.9km/h 17% 0.00in /  0mm 0.0 W/m2
03:38 69.4 °F /  20.8 °C 21.2 °F /  -6 °C 29.65in /  1003.9hPa SSW 2.0mph /  3.2km/h 12.0mph /  19.3km/h 16% 0.00in /  0mm 0.0 W/m2
03:43 69.6 °F /  20.9 °C 22.8 °F /  -5.1 °C 29.65in /  1003.9hPa South 0.9mph /  1.4km/h 4.0mph /  6.4km/h 17% 0.00in /  0mm 0.0 W/m2
03:48 69.4 °F /  20.8 °C 21.2 °F /  -6 °C 29.66in /  1004.3hPa Calm     16% 0.00in /  0mm 0.0 W/m2
03:53 69.3 °F /  20.7 °C 19.6 °F /  -6.9 °C 29.66in /  1004.3hPa Calm   7.0mph /  11.3km/h 15% 0.00in /  0mm 0.0 W/m2
04:03 69.3 °F /  20.7 °C 18.0 °F /  -7.8 °C 29.66in /  1004.3hPa Calm   3.0mph /  4.8km/h 14% 0.00in /  0mm 0.0 W/m2
04:08 69.1 °F /  20.6 °C 18.0 °F /  -7.8 °C 29.66in /  1004.3hPa Calm   2.0mph /  3.2km/h 14% 0.00in /  0mm 0.0 W/m2
04:13 68.9 °F /  20.5 °C 19.4 °F /  -7 °C 29.67in /  1004.6hPa Calm   3.0mph /  4.8km/h 15% 0.00in /  0mm 0.0 W/m2
04:18 68.5 °F /  20.3 °C 19.0 °F /  -7.2 °C 29.67in /  1004.6hPa North 4.9mph /  7.9km/h 5.0mph /  8km/h 15% 0.00in /  0mm 0.0 W/m2
04:23 68.2 °F /  20.1 °C 17.2 °F /  -8.2 °C 29.68in /  1005hPa ENE 2.9mph /  4.7km/h 4.0mph /  6.4km/h 14% 0.00in /  0mm 0.0 W/m2
04:28 68.0 °F /  20 °C 17.1 °F /  -8.3 °C 29.68in /  1005hPa SE 2.9mph /  4.7km/h 3.0mph /  4.8km/h 14% 0.00in /  0mm 0.0 W/m2
04:34 67.8 °F /  19.9 °C 16.9 °F /  -8.4 °C 29.68in /  1005hPa Calm   5.0mph /  8km/h 14% 0.00in /  0mm 0.0 W/m2
04:39 68.0 °F /  20 °C 17.1 °F /  -8.3 °C 29.68in /  1005hPa SE 6.0mph /  9.7km/h 10.0mph /  16.1km/h 14% 0.00in /  0mm 0.0 W/m2
04:44 68.4 °F /  20.2 °C 15.6 °F /  -9.1 °C 29.68in /  1005hPa Calm   6.0mph /  9.7km/h 13% 0.00in /  0mm 0.0 W/m2
04:49 68.5 °F /  20.3 °C 17.4 °F /  -8.1 °C 29.68in /  1005hPa NE 2.0mph /  3.2km/h 5.0mph /  8km/h 14% 0.00in /  0mm 0.0 W/m2
04:54 68.5 °F /  20.3 °C 17.4 °F /  -8.1 °C 29.69in /  1005.3hPa East 4.9mph /  7.9km/h 6.0mph /  9.7km/h 14% 0.00in /  0mm 0.0 W/m2
04:59 68.4 °F /  20.2 °C 18.9 °F /  -7.3 °C 29.69in /  1005.3hPa Calm   4.0mph /  6.4km/h 15% 0.00in /  0mm 0.0 W/m2
05:04 67.8 °F /  19.9 °C 18.5 °F /  -7.5 °C 29.68in /  1005hPa Calm   2.0mph /  3.2km/h 15% 0.00in /  0mm 0.0 W/m2
05:08 67.5 °F /  19.7 °C 18.1 °F /  -7.7 °C 29.68in /  1005hPa Calm   5.0mph /  8km/h 15% 0.00in /  0mm 0.0 W/m2
05:13 67.3 °F /  19.6 °C 18.0 °F /  -7.8 °C 29.69in /  1005.3hPa NNW 0.9mph /  1.4km/h 3.0mph /  4.8km/h 15% 0.00in /  0mm 0.0 W/m2
05:18 66.9 °F /  19.4 °C 17.8 °F /  -7.9 °C 29.69in /  1005.3hPa ESE 0.9mph /  1.4km/h 4.0mph /  6.4km/h 15% 0.00in /  0mm 0.0 W/m2
05:24 66.9 °F /  19.4 °C 17.8 °F /  -7.9 °C 29.68in /  1005hPa ESE 0.9mph /  1.4km/h 6.0mph /  9.7km/h 15% 0.00in /  0mm 0.0 W/m2
05:29 66.9 °F /  19.4 °C 17.8 °F /  -7.9 °C 29.68in /  1005hPa East 2.9mph /  4.7km/h 4.0mph /  6.4km/h 15% 0.00in /  0mm 0.0 W/m2
05:34 67.3 °F /  19.6 °C 18.0 °F /  -7.8 °C 29.69in /  1005.3hPa SE 2.0mph /  3.2km/h 5.0mph /  8km/h 15% 0.00in /  0mm 0.0 W/m2
05:39 67.5 °F /  19.7 °C 18.1 °F /  -7.7 °C 29.69in /  1005.3hPa East 0.9mph /  1.4km/h 9.0mph /  14.5km/h 15% 0.00in /  0mm 0.0 W/m2
05:44 67.5 °F /  19.7 °C 18.1 °F /  -7.7 °C 29.69in /  1005.3hPa ENE 4.9mph /  7.9km/h 5.0mph /  8km/h 15% 0.00in /  0mm 0.0 W/m2
05:49 67.3 °F /  19.6 °C 18.0 °F /  -7.8 °C 29.69in /  1005.3hPa Calm   1.0mph /  1.6km/h 15% 0.00in /  0mm 0.0 W/m2
05:54 66.9 °F /  19.4 °C 19.2 °F /  -7.1 °C 29.69in /  1005.3hPa Calm   2.0mph /  3.2km/h 16% 0.00in /  0mm 0.0 W/m2
05:59 66.6 °F /  19.2 °C 19.0 °F /  -7.2 °C 29.69in /  1005.3hPa Calm   4.0mph /  6.4km/h 16% 0.00in /  0mm 0.0 W/m2
06:04 66.0 °F /  18.9 °C 18.5 °F /  -7.5 °C 29.69in /  1005.3hPa East 2.0mph /  3.2km/h 4.0mph /  6.4km/h 16% 0.00in /  0mm 5.0 W/m2
06:09 65.8 °F /  18.8 °C 18.3 °F /  -7.6 °C 29.69in /  1005.3hPa NNE 0.9mph /  1.4km/h 3.0mph /  4.8km/h 16% 0.00in /  0mm 9.0 W/m2
06:15 65.5 °F /  18.6 °C 18.1 °F /  -7.7 °C 29.70in /  1005.6hPa Calm   5.0mph /  8km/h 16% 0.00in /  0mm 11.0 W/m2
06:20 65.1 °F /  18.4 °C 19.2 °F /  -7.1 °C 29.70in /  1005.6hPa ESE 0.9mph /  1.4km/h 6.0mph /  9.7km/h 17% 0.00in /  0mm 12.0 W/m2
06:25 65.1 °F /  18.4 °C 19.2 °F /  -7.1 °C 29.70in /  1005.6hPa SE 2.0mph /  3.2km/h 6.0mph /  9.7km/h 17% 0.00in /  0mm 14.0 W/m2
06:30 64.9 °F /  18.3 °C 20.5 °F /  -6.4 °C 29.71in /  1006hPa Calm   3.0mph /  4.8km/h 18% 0.00in /  0mm 16.0 W/m2
06:35 64.9 °F /  18.3 °C 20.5 °F /  -6.4 °C 29.71in /  1006hPa ENE 0.9mph /  1.4km/h 5.0mph /  8km/h 18% 0.00in /  0mm 18.0 W/m2
06:38 65.1 °F /  18.4 °C 20.5 °F /  -6.4 °C 29.71in /  1006hPa ESE 4.0mph /  6.4km/h 8.0mph /  12.9km/h 18% 0.00in /  0mm 18.0 W/m2
06:43 65.3 °F /  18.5 °C 20.7 °F /  -6.3 °C 29.71in /  1006hPa SE 2.9mph /  4.7km/h 9.0mph /  14.5km/h 18% 0.00in /  0mm 19.0 W/m2
06:48 65.7 °F /  18.7 °C 21.0 °F /  -6.1 °C 29.71in /  1006hPa East 2.9mph /  4.7km/h 6.0mph /  9.7km/h 18% 0.00in /  0mm 21.0 W/m2
06:53 66.0 °F /  18.9 °C 21.2 °F /  -6 °C 29.71in /  1006hPa East 4.9mph /  7.9km/h 7.0mph /  11.3km/h 18% 0.00in /  0mm 21.0 W/m2
06:59 66.4 °F /  19.1 °C 21.6 °F /  -5.8 °C 29.72in /  1006.3hPa Calm   2.0mph /  3.2km/h 18% 0.00in /  0mm 23.0 W/m2
07:04 66.7 °F /  19.3 °C 20.5 °F /  -6.4 °C 29.72in /  1006.3hPa Calm   7.0mph /  11.3km/h 17% 0.00in /  0mm 25.0 W/m2
07:09 67.1 °F /  19.5 °C 20.8 °F /  -6.2 °C 29.72in /  1006.3hPa Calm   6.0mph /  9.7km/h 17% 0.00in /  0mm 25.0 W/m2
07:14 67.6 °F /  19.8 °C 21.2 °F /  -6 °C 29.72in /  1006.3hPa Calm   5.0mph /  8km/h 17% 0.00in /  0mm 26.0 W/m2
07:19 68.2 °F /  20.1 °C 21.7 °F /  -5.7 °C 29.72in /  1006.3hPa Calm   8.0mph /  12.9km/h 17% 0.00in /  0mm 33.0 W/m2
07:24 68.4 °F /  20.2 °C 21.9 °F /  -5.6 °C 29.72in /  1006.3hPa East 0.9mph /  1.4km/h 9.0mph /  14.5km/h 17% 0.00in /  0mm 301.0 W/m2
07:29 68.9 °F /  20.5 °C 22.3 °F /  -5.4 °C 29.72in /  1006.3hPa ENE 2.0mph /  3.2km/h 4.0mph /  6.4km/h 17% 0.00in /  0mm 325.0 W/m2
07:34 69.4 °F /  20.8 °C 21.2 °F /  -6 °C 29.72in /  1006.3hPa SE 2.9mph /  4.7km/h 7.0mph /  11.3km/h 16% 0.00in /  0mm 346.0 W/m2
07:39 70.3 °F /  21.3 °C 23.5 °F /  -4.7 °C 29.72in /  1006.3hPa East 10.1mph /  16.3km/h 10.1mph /  16.3km/h 17% 0.00in /  0mm 367.0 W/m2
07:44 71.2 °F /  21.8 °C 21.2 °F /  -6 °C 29.72in /  1006.3hPa NE 0.9mph /  1.4km/h 15.0mph /  24.1km/h 15% 0.00in /  0mm 388.0 W/m2
07:50 71.8 °F /  22.1 °C 21.6 °F /  -5.8 °C 29.72in /  1006.3hPa ENE 6.0mph /  9.7km/h 9.0mph /  14.5km/h 15% 0.00in /  0mm 408.0 W/m2
07:55 72.5 °F /  22.5 °C 22.3 °F /  -5.4 °C 29.72in /  1006.3hPa ESE 4.9mph /  7.9km/h 11.0mph /  17.7km/h 15% 0.00in /  0mm 431.0 W/m2
08:00 73.0 °F /  22.8 °C 22.6 °F /  -5.2 °C 29.72in /  1006.3hPa North 2.9mph /  4.7km/h 8.0mph /  12.9km/h 15% 0.00in /  0mm 450.0 W/m2
08:10 73.8 °F /  23.2 °C 21.6 °F /  -5.8 °C 29.72in /  1006.3hPa ENE 4.0mph /  6.4km/h 10.0mph /  16.1km/h 14% 0.00in /  0mm 490.0 W/m2
08:15 73.9 °F /  23.3 °C 21.7 °F /  -5.7 °C 29.72in /  1006.3hPa NE 4.9mph /  7.9km/h 8.0mph /  12.9km/h 14% 0.00in /  0mm 512.0 W/m2
08:20 74.3 °F /  23.5 °C 22.1 °F /  -5.5 °C 29.72in /  1006.3hPa NE 6.0mph /  9.7km/h 7.0mph /  11.3km/h 14% 0.00in /  0mm 527.0 W/m2
08:25 74.5 °F /  23.6 °C 22.1 °F /  -5.5 °C 29.72in /  1006.3hPa ENE 4.9mph /  7.9km/h 14.0mph /  22.5km/h 14% 0.00in /  0mm 550.0 W/m2
08:30 74.5 °F /  23.6 °C 22.1 °F /  -5.5 °C 29.72in /  1006.3hPa SSE 0.9mph /  1.4km/h 10.0mph /  16.1km/h 14% 0.00in /  0mm 570.0 W/m2
08:36 74.8 °F /  23.8 °C 20.7 °F /  -6.3 °C 29.72in /  1006.3hPa ENE 8.9mph /  14.3km/h 10.0mph /  16.1km/h 13% 0.00in /  0mm 589.0 W/m2
08:41 75.4 °F /  24.1 °C 21.2 °F /  -6 °C 29.72in /  1006.3hPa ENE 4.0mph /  6.4km/h 11.0mph /  17.7km/h 13% 0.00in /  0mm 605.0 W/m2
08:46 75.6 °F /  24.2 °C 21.2 °F /  -6 °C 29.72in /  1006.3hPa East 4.0mph /  6.4km/h 15.0mph /  24.1km/h 13% 0.00in /  0mm 626.0 W/m2
08:51 75.7 °F /  24.3 °C 23.2 °F /  -4.9 °C 29.72in /  1006.3hPa South 2.0mph /  3.2km/h 9.0mph /  14.5km/h 14% 0.00in /  0mm 640.0 W/m2
08:56 75.9 °F /  24.4 °C 21.6 °F /  -5.8 °C 29.72in /  1006.3hPa ENE 2.9mph /  4.7km/h 13.0mph /  20.9km/h 13% 0.00in /  0mm 657.0 W/m2
09:01 76.5 °F /  24.7 °C 21.9 °F /  -5.6 °C 29.72in /  1006.3hPa ENE 4.9mph /  7.9km/h 9.0mph /  14.5km/h 13% 0.00in /  0mm 680.0 W/m2
09:06 76.6 °F /  24.8 °C 22.1 °F /  -5.5 °C 29.72in /  1006.3hPa ESE 2.0mph /  3.2km/h 13.0mph /  20.9km/h 13% 0.00in /  0mm 700.0 W/m2
09:11 77.2 °F /  25.1 °C 20.7 °F /  -6.3 °C 29.73in /  1006.7hPa NE 6.0mph /  9.7km/h 13.0mph /  20.9km/h 12% 0.00in /  0mm 715.0 W/m2
09:16 77.4 °F /  25.2 °C 20.8 °F /  -6.2 °C 29.73in /  1006.7hPa East 6.9mph /  11.1km/h 14.0mph /  22.5km/h 12% 0.00in /  0mm 733.0 W/m2
09:21 77.5 °F /  25.3 °C 20.8 °F /  -6.2 °C 29.73in /  1006.7hPa North 0.9mph /  1.4km/h 12.0mph /  19.3km/h 12% 0.00in /  0mm 745.0 W/m2
09:27 77.9 °F /  25.5 °C 21.2 °F /  -6 °C 29.72in /  1006.3hPa East 4.9mph /  7.9km/h 6.0mph /  9.7km/h 12% 0.00in /  0mm 765.0 W/m2
09:32 78.4 °F /  25.8 °C 21.6 °F /  -5.8 °C 29.73in /  1006.7hPa SSE 6.9mph /  11.1km/h 9.0mph /  14.5km/h 12% 0.00in /  0mm 780.0 W/m2
09:37 78.6 °F /  25.9 °C 21.7 °F /  -5.7 °C 29.72in /  1006.3hPa ESE 8.1mph /  13km/h 10.0mph /  16.1km/h 12% 0.00in /  0mm 793.0 W/m2
09:42 79.0 °F /  26.1 °C 19.9 °F /  -6.7 °C 29.72in /  1006.3hPa NE 4.9mph /  7.9km/h 10.0mph /  16.1km/h 11% 0.00in /  0mm 810.0 W/m2
09:47 79.3 °F /  26.3 °C 22.3 °F /  -5.4 °C 29.72in /  1006.3hPa East 4.9mph /  7.9km/h 8.0mph /  12.9km/h 12% 0.00in /  0mm 826.0 W/m2
09:52 79.9 °F /  26.6 °C 20.7 °F /  -6.3 °C 29.72in /  1006.3hPa ENE 6.9mph /  11.1km/h 9.0mph /  14.5km/h 11% 0.00in /  0mm 842.0 W/m2
09:58 80.4 °F /  26.9 °C 21.0 °F /  -6.1 °C 29.73in /  1006.7hPa NE 4.9mph /  7.9km/h 11.0mph /  17.7km/h 11% 0.00in /  0mm 858.0 W/m2
10:03 80.4 °F /  26.9 °C 21.0 °F /  -6.1 °C 29.73in /  1006.7hPa ESE 2.9mph /  4.7km/h 12.0mph /  19.3km/h 11% 0.00in /  0mm 872.0 W/m2
10:09 80.4 °F /  26.9 °C 21.0 °F /  -6.1 °C 29.73in /  1006.7hPa ENE 6.0mph /  9.7km/h 15.0mph /  24.1km/h 11% 0.00in /  0mm 886.0 W/m2
10:14 80.4 °F /  26.9 °C 21.0 °F /  -6.1 °C 29.73in /  1006.7hPa ESE 4.0mph /  6.4km/h 8.0mph /  12.9km/h 11% 0.00in /  0mm 900.0 W/m2
10:19 81.0 °F /  27.2 °C 21.6 °F /  -5.8 °C 29.73in /  1006.7hPa NNE 0.9mph /  1.4km/h 8.0mph /  12.9km/h 11% 0.00in /  0mm 912.0 W/m2
10:25 81.7 °F /  27.6 °C 22.1 °F /  -5.5 °C 29.73in /  1006.7hPa ENE 8.1mph /  13km/h 11.0mph /  17.7km/h 11% 0.00in /  0mm 925.0 W/m2
10:30 81.9 °F /  27.7 °C 19.9 °F /  -6.7 °C 29.73in /  1006.7hPa NNE 4.0mph /  6.4km/h 11.0mph /  17.7km/h 10% 0.00in /  0mm 939.0 W/m2
10:35 82.2 °F /  27.9 °C 22.5 °F /  -5.3 °C 29.73in /  1006.7hPa ESE 6.9mph /  11.1km/h 9.0mph /  14.5km/h 11% 0.00in /  0mm 949.0 W/m2
10:40 82.6 °F /  28.1 °C 20.5 °F /  -6.4 °C 29.73in /  1006.7hPa NNE 2.0mph /  3.2km/h 8.0mph /  12.9km/h 10% 0.00in /  0mm 958.0 W/m2
10:45 82.8 °F /  28.2 °C 20.7 °F /  -6.3 °C 29.73in /  1006.7hPa North 6.0mph /  9.7km/h 7.0mph /  11.3km/h 10% 0.00in /  0mm 967.0 W/m2
10:51 83.1 °F /  28.4 °C 20.8 °F /  -6.2 °C 29.73in /  1006.7hPa NW 0.9mph /  1.4km/h 5.0mph /  8km/h 10% 0.00in /  0mm 981.0 W/m2
10:56 83.7 °F /  28.7 °C 18.9 °F /  -7.3 °C 29.73in /  1006.7hPa North 4.0mph /  6.4km/h 8.0mph /  12.9km/h 9% 0.00in /  0mm 991.0 W/m2
11:02 83.7 °F /  28.7 °C 18.9 °F /  -7.3 °C 29.73in /  1006.7hPa North 6.0mph /  9.7km/h 14.0mph /  22.5km/h 9% 0.00in /  0mm 1000.0 W/m2
11:07 83.7 °F /  28.7 °C 21.4 °F /  -5.9 °C 29.73in /  1006.7hPa NE 2.0mph /  3.2km/h 7.0mph /  11.3km/h 10% 0.00in /  0mm 1011.0 W/m2
11:12 83.8 °F /  28.8 °C 19.0 °F /  -7.2 °C 29.72in /  1006.3hPa ENE 8.1mph /  13km/h 10.0mph /  16.1km/h 9% 0.00in /  0mm 1018.0 W/m2
11:22 84.4 °F /  29.1 °C 21.9 °F /  -5.6 °C 29.72in /  1006.3hPa SSE 0.9mph /  1.4km/h 8.0mph /  12.9km/h 10% 0.00in /  0mm 1028.0 W/m2
11:27 84.7 °F /  29.3 °C 19.6 °F /  -6.9 °C 29.72in /  1006.3hPa ENE 4.0mph /  6.4km/h 9.0mph /  14.5km/h 9% 0.00in /  0mm 1039.0 W/m2
11:32 84.9 °F /  29.4 °C 19.8 °F /  -6.8 °C 29.72in /  1006.3hPa ENE 2.0mph /  3.2km/h 7.0mph /  11.3km/h 9% 0.00in /  0mm 1044.0 W/m2
11:37 85.3 °F /  29.6 °C 20.1 °F /  -6.6 °C 29.72in /  1006.3hPa East 2.0mph /  3.2km/h 7.0mph /  11.3km/h 9% 0.00in /  0mm 1049.0 W/m2
11:42 85.3 °F /  29.6 °C 20.1 °F /  -6.6 °C 29.72in /  1006.3hPa NE 2.9mph /  4.7km/h 9.0mph /  14.5km/h 9% 0.00in /  0mm 1053.0 W/m2
11:48 85.6 °F /  29.8 °C 20.3 °F /  -6.5 °C 29.72in /  1006.3hPa SE 0.9mph /  1.4km/h 8.0mph /  12.9km/h 9% 0.00in /  0mm 1055.0 W/m2
11:53 85.6 °F /  29.8 °C 20.3 °F /  -6.5 °C 29.72in /  1006.3hPa NNE 0.9mph /  1.4km/h 4.0mph /  6.4km/h 9% 0.00in /  0mm 1063.0 W/m2
11:58 85.8 °F /  29.9 °C 20.5 °F /  -6.4 °C 29.72in /  1006.3hPa SE 2.0mph /  3.2km/h 5.0mph /  8km/h 9% 0.00in /  0mm 1067.0 W/m2
12:03 86.2 °F /  30.1 °C 20.7 °F /  -6.3 °C 29.72in /  1006.3hPa NNW 0.9mph /  1.4km/h 8.0mph /  12.9km/h 9% 0.00in /  0mm 1069.0 W/m2
12:08 86.7 °F /  30.4 °C 18.3 °F /  -7.6 °C 29.71in /  1006hPa ESE 4.9mph /  7.9km/h 8.0mph /  12.9km/h 8% 0.00in /  0mm 1074.0 W/m2
12:13 87.1 °F /  30.6 °C 18.7 °F /  -7.4 °C 29.72in /  1006.3hPa NE 4.9mph /  7.9km/h 7.0mph /  11.3km/h 8% 0.00in /  0mm 1074.0 W/m2
12:18 87.1 °F /  30.6 °C 18.7 °F /  -7.4 °C 29.71in /  1006hPa SE 2.9mph /  4.7km/h 4.0mph /  6.4km/h 8% 0.00in /  0mm 1078.0 W/m2
12:24 87.3 °F /  30.7 °C 18.9 °F /  -7.3 °C 29.71in /  1006hPa North 0.9mph /  1.4km/h 9.0mph /  14.5km/h 8% 0.00in /  0mm 1079.0 W/m2
12:29 87.8 °F /  31 °C 19.2 °F /  -7.1 °C 29.71in /  1006hPa Calm   4.0mph /  6.4km/h 8% 0.00in /  0mm 1081.0 W/m2
12:34 88.2 °F /  31.2 °C 16.3 °F /  -8.7 °C 29.70in /  1005.6hPa NE 2.0mph /  3.2km/h 6.0mph /  9.7km/h 7% 0.00in /  0mm 1076.0 W/m2
12:39 88.3 °F /  31.3 °C 16.5 °F /  -8.6 °C 29.70in /  1005.6hPa Calm   4.0mph /  6.4km/h 7% 0.00in /  0mm 1079.0 W/m2
12:44 88.3 °F /  31.3 °C 16.5 °F /  -8.6 °C 29.70in /  1005.6hPa South 0.9mph /  1.4km/h 3.0mph /  4.8km/h 7% 0.00in /  0mm 1078.0 W/m2
12:49 88.0 °F /  31.1 °C 19.4 °F /  -7 °C 29.70in /  1005.6hPa SSW 4.0mph /  6.4km/h 4.0mph /  6.4km/h 8% 0.00in /  0mm 1072.0 W/m2
12:54 88.0 °F /  31.1 °C 19.4 °F /  -7 °C 29.70in /  1005.6hPa NNE 4.0mph /  6.4km/h 7.0mph /  11.3km/h 8% 0.00in /  0mm 1067.0 W/m2
12:59 88.0 °F /  31.1 °C 19.4 °F /  -7 °C 29.70in /  1005.6hPa North 4.0mph /  6.4km/h 7.0mph /  11.3km/h 8% 0.00in /  0mm 1063.0 W/m2
13:04 88.2 °F /  31.2 °C 19.4 °F /  -7 °C 29.70in /  1005.6hPa NW 6.0mph /  9.7km/h 9.0mph /  14.5km/h 8% 0.00in /  0mm 1065.0 W/m2
13:08 88.2 °F /  31.2 °C 19.4 °F /  -7 °C 29.69in /  1005.3hPa Calm   7.0mph /  11.3km/h 8% 0.00in /  0mm 1067.0 W/m2
13:14 88.9 °F /  31.6 °C 19.9 °F /  -6.7 °C 29.69in /  1005.3hPa South 6.0mph /  9.7km/h 7.0mph /  11.3km/h 8% 0.00in /  0mm 1060.0 W/m2
13:19 89.1 °F /  31.7 °C 17.1 °F /  -8.3 °C 29.69in /  1005.3hPa SSW 2.0mph /  3.2km/h 13.0mph /  20.9km/h 7% 0.00in /  0mm 1060.0 W/m2
13:24 89.2 °F /  31.8 °C 20.3 °F /  -6.5 °C 29.69in /  1005.3hPa SSW 4.0mph /  6.4km/h 5.0mph /  8km/h 8% 0.00in /  0mm 1053.0 W/m2
13:29 89.2 °F /  31.8 °C 17.1 °F /  -8.3 °C 29.68in /  1005hPa West 2.9mph /  4.7km/h 5.0mph /  8km/h 7% 0.00in /  0mm 1051.0 W/m2
13:34 89.4 °F /  31.9 °C 17.2 °F /  -8.2 °C 29.68in /  1005hPa Calm   3.0mph /  4.8km/h 7% 0.00in /  0mm 1044.0 W/m2
13:39 89.8 °F /  32.1 °C 17.6 °F /  -8 °C 29.68in /  1005hPa NNW 2.0mph /  3.2km/h 3.0mph /  4.8km/h 7% 0.00in /  0mm 1039.0 W/m2
13:44 90.1 °F /  32.3 °C 20.8 °F /  -6.2 °C 29.67in /  1004.6hPa SW 2.0mph /  3.2km/h 4.0mph /  6.4km/h 8% 0.00in /  0mm 1034.0 W/m2
13:49 90.5 °F /  32.5 °C 18.1 °F /  -7.7 °C 29.67in /  1004.6hPa WNW 2.0mph /  3.2km/h 8.0mph /  12.9km/h 7% 0.00in /  0mm 1027.0 W/m2
13:55 90.5 °F /  32.5 °C 18.1 °F /  -7.7 °C 29.67in /  1004.6hPa SSW 0.9mph /  1.4km/h 3.0mph /  4.8km/h 7% 0.00in /  0mm 1018.0 W/m2
14:00 90.1 °F /  32.3 °C 17.8 °F /  -7.9 °C 29.67in /  1004.6hPa Calm   7.0mph /  11.3km/h 7% 0.00in /  0mm 1009.0 W/m2
14:05 90.1 °F /  32.3 °C 20.8 °F /  -6.2 °C 29.67in /  1004.6hPa NNW 2.9mph /  4.7km/h 6.0mph /  9.7km/h 8% 0.00in /  0mm 1000.0 W/m2
14:10 90.7 °F /  32.6 °C 18.1 °F /  -7.7 °C 29.67in /  1004.6hPa North 4.9mph /  7.9km/h 6.0mph /  9.7km/h 7% 0.00in /  0mm 991.0 W/m2
14:15 90.7 °F /  32.6 °C 18.1 °F /  -7.7 °C 29.67in /  1004.6hPa Calm   4.0mph /  6.4km/h 7% 0.00in /  0mm 981.0 W/m2
14:21 90.3 °F /  32.4 °C 18.0 °F /  -7.8 °C 29.66in /  1004.3hPa SW 2.9mph /  4.7km/h 6.0mph /  9.7km/h 7% 0.00in /  0mm 969.0 W/m2
14:26 90.3 °F /  32.4 °C 18.0 °F /  -7.8 °C 29.66in /  1004.3hPa SW 2.9mph /  4.7km/h 5.0mph /  8km/h 7% 0.00in /  0mm 963.0 W/m2
14:37 90.9 °F /  32.7 °C 18.3 °F /  -7.6 °C 29.66in /  1004.3hPa SW 4.9mph /  7.9km/h 5.0mph /  8km/h 7% 0.00in /  0mm 940.0 W/m2
14:42 91.6 °F /  33.1 °C 18.9 °F /  -7.3 °C 29.66in /  1004.3hPa NW 4.0mph /  6.4km/h 8.0mph /  12.9km/h 7% 0.00in /  0mm 928.0 W/m2
14:47 91.8 °F /  33.2 °C 19.0 °F /  -7.2 °C 29.66in /  1004.3hPa South 4.9mph /  7.9km/h 5.0mph /  8km/h 7% 0.00in /  0mm 918.0 W/m2
14:52 91.9 °F /  33.3 °C 19.0 °F /  -7.2 °C 29.65in /  1003.9hPa ESE 6.9mph /  11.1km/h 7.0mph /  11.3km/h 7% 0.00in /  0mm 904.0 W/m2
14:57 91.8 °F /  33.2 °C 15.4 °F /  -9.2 °C 29.65in /  1003.9hPa ESE 2.0mph /  3.2km/h 7.0mph /  11.3km/h 6% 0.00in /  0mm 891.0 W/m2
15:03 92.3 °F /  33.5 °C 15.8 °F /  -9 °C 29.65in /  1003.9hPa Calm   6.0mph /  9.7km/h 6% 0.00in /  0mm 872.0 W/m2
15:13 93.6 °F /  34.2 °C 16.7 °F /  -8.5 °C 29.64in /  1003.6hPa North 2.0mph /  3.2km/h 3.0mph /  4.8km/h 6% 0.00in /  0mm 844.0 W/m2
15:19 93.6 °F /  34.2 °C 16.7 °F /  -8.5 °C 29.64in /  1003.6hPa Calm   8.0mph /  12.9km/h 6% 0.00in /  0mm 824.0 W/m2
15:24 93.7 °F /  34.3 °C 16.9 °F /  -8.4 °C 29.64in /  1003.6hPa NW 4.9mph /  7.9km/h 8.0mph /  12.9km/h 6% 0.00in /  0mm 814.0 W/m2
15:29 93.9 °F /  34.4 °C 16.9 °F /  -8.4 °C 29.64in /  1003.6hPa NW 2.9mph /  4.7km/h 3.0mph /  4.8km/h 6% 0.00in /  0mm 798.0 W/m2
15:34 93.9 °F /  34.4 °C 16.9 °F /  -8.4 °C 29.63in /  1003.3hPa SE 4.0mph /  6.4km/h 7.0mph /  11.3km/h 6% 0.00in /  0mm 784.0 W/m2
15:39 93.7 °F /  34.3 °C 16.9 °F /  -8.4 °C 29.63in /  1003.3hPa NW 2.0mph /  3.2km/h 8.0mph /  12.9km/h 6% 0.00in /  0mm 770.0 W/m2
15:44 93.2 °F /  34 °C 16.5 °F /  -8.6 °C 29.63in /  1003.3hPa North 4.9mph /  7.9km/h 9.0mph /  14.5km/h 6% 0.00in /  0mm 752.0 W/m2
15:49 92.7 °F /  33.7 °C 16.0 °F /  -8.9 °C 29.63in /  1003.3hPa West 0.9mph /  1.4km/h 3.0mph /  4.8km/h 6% 0.00in /  0mm 737.0 W/m2
15:54 93.0 °F /  33.9 °C 16.3 °F /  -8.7 °C 29.63in /  1003.3hPa Calm   6.0mph /  9.7km/h 6% 0.00in /  0mm 721.0 W/m2
16:00 93.2 °F /  34 °C 16.5 °F /  -8.6 °C 29.63in /  1003.3hPa SW 2.9mph /  4.7km/h 5.0mph /  8km/h 6% 0.00in /  0mm 701.0 W/m2
16:05 92.8 °F /  33.8 °C 16.2 °F /  -8.8 °C 29.63in /  1003.3hPa SW 2.0mph /  3.2km/h 6.0mph /  9.7km/h 6% 0.00in /  0mm 686.0 W/m2
16:10 92.7 °F /  33.7 °C 16.0 °F /  -8.9 °C 29.63in /  1003.3hPa NNW 2.0mph /  3.2km/h 2.0mph /  3.2km/h 6% 0.00in /  0mm 671.0 W/m2
16:15 92.7 °F /  33.7 °C 16.0 °F /  -8.9 °C 29.62in /  1002.9hPa East 2.0mph /  3.2km/h 4.0mph /  6.4km/h 6% 0.00in /  0mm 650.0 W/m2
16:20 93.0 °F /  33.9 °C 16.3 °F /  -8.7 °C 29.62in /  1002.9hPa ESE 2.0mph /  3.2km/h 8.0mph /  12.9km/h 6% 0.00in /  0mm 633.0 W/m2
16:25 93.6 °F /  34.2 °C 16.7 °F /  -8.5 °C 29.62in /  1002.9hPa SSE 4.0mph /  6.4km/h 8.0mph /  12.9km/h 6% 0.00in /  0mm 617.0 W/m2
16:30 93.6 °F /  34.2 °C 16.7 °F /  -8.5 °C 29.62in /  1002.9hPa East 0.9mph /  1.4km/h 6.0mph /  9.7km/h 6% 0.00in /  0mm 596.0 W/m2
16:35 93.6 °F /  34.2 °C 16.7 °F /  -8.5 °C 29.62in /  1002.9hPa WSW 0.9mph /  1.4km/h 3.0mph /  4.8km/h 6% 0.00in /  0mm 578.0 W/m2
16:41 93.9 °F /  34.4 °C 16.9 °F /  -8.4 °C 29.62in /  1002.9hPa NNE 4.0mph /  6.4km/h 22.0mph /  35.4km/h 6% 0.00in /  0mm 559.0 W/m2
16:47 93.4 °F /  34.1 °C 16.5 °F /  -8.6 °C 29.62in /  1002.9hPa ENE 2.0mph /  3.2km/h 5.0mph /  8km/h 6% 0.00in /  0mm 534.0 W/m2
16:48 93.4 °F /  34.1 °C 16.5 °F /  -8.6 °C 29.62in /  1002.9hPa NNW 2.0mph /  3.2km/h 3.0mph /  4.8km/h 6% 0.00in /  0mm 531.0 W/m2
16:53 93.6 °F /  34.2 °C 16.7 °F /  -8.5 °C 29.61in /  1002.6hPa West 2.0mph /  3.2km/h 5.0mph /  8km/h 6% 0.00in /  0mm 512.0 W/m2
16:59 93.9 °F /  34.4 °C 16.9 °F /  -8.4 °C 29.61in /  1002.6hPa WSW 0.9mph /  1.4km/h 5.0mph /  8km/h 6% 0.00in /  0mm 490.0 W/m2
17:04 94.3 °F /  34.6 °C 13.1 °F /  -10.5 °C 29.61in /  1002.6hPa WSW 4.0mph /  6.4km/h 8.0mph /  12.9km/h 5% 0.00in /  0mm 471.0 W/m2
17:10 93.7 °F /  34.3 °C 16.9 °F /  -8.4 °C 29.61in /  1002.6hPa Calm   3.0mph /  4.8km/h 6% 0.00in /  0mm 448.0 W/m2
17:16 93.9 °F /  34.4 °C 16.9 °F /  -8.4 °C 29.61in /  1002.6hPa WSW 2.9mph /  4.7km/h 4.0mph /  6.4km/h 6% 0.00in /  0mm 425.0 W/m2
17:21 93.9 °F /  34.4 °C 12.7 °F /  -10.7 °C 29.61in /  1002.6hPa Calm   2.0mph /  3.2km/h 5% 0.00in /  0mm 406.0 W/m2
17:26 93.9 °F /  34.4 °C 12.7 °F /  -10.7 °C 29.61in /  1002.6hPa WSW 2.9mph /  4.7km/h 5.0mph /  8km/h 5% 0.00in /  0mm 385.0 W/m2
17:31 93.6 °F /  34.2 °C 12.6 °F /  -10.8 °C 29.61in /  1002.6hPa WSW 6.9mph /  11.1km/h 7.0mph /  11.3km/h 5% 0.00in /  0mm 367.0 W/m2
17:37 93.2 °F /  34 °C 16.5 °F /  -8.6 °C 29.60in /  1002.3hPa SE 2.9mph /  4.7km/h 3.0mph /  4.8km/h 6% 0.00in /  0mm 343.0 W/m2
17:42 93.4 °F /  34.1 °C 12.4 °F /  -10.9 °C 29.61in /  1002.6hPa South 4.0mph /  6.4km/h 7.0mph /  11.3km/h 5% 0.00in /  0mm 322.0 W/m2
17:48 93.0 °F /  33.9 °C 16.3 °F /  -8.7 °C 29.61in /  1002.6hPa West 0.9mph /  1.4km/h 5.0mph /  8km/h 6% 0.00in /  0mm 299.0 W/m2
17:53 93.0 °F /  33.9 °C 12.2 °F /  -11 °C 29.61in /  1002.6hPa Calm   1.0mph /  1.6km/h 5% 0.00in /  0mm 279.0 W/m2
17:58 93.0 °F /  33.9 °C 16.3 °F /  -8.7 °C 29.61in /  1002.6hPa SW 0.9mph /  1.4km/h 2.0mph /  3.2km/h 6% 0.00in /  0mm 258.0 W/m2
18:03 93.0 °F /  33.9 °C 16.3 °F /  -8.7 °C 29.61in /  1002.6hPa ESE 0.9mph /  1.4km/h 5.0mph /  8km/h 6% 0.00in /  0mm 237.0 W/m2
18:08 92.7 °F /  33.7 °C 11.8 °F /  -11.2 °C 29.61in /  1002.6hPa SW 2.0mph /  3.2km/h 5.0mph /  8km/h 5% 0.00in /  0mm 216.0 W/m2
18:13 91.9 °F /  33.3 °C 15.6 °F /  -9.1 °C 29.61in /  1002.6hPa South 0.9mph /  1.4km/h 4.0mph /  6.4km/h 6% 0.00in /  0mm 193.0 W/m2
18:18 91.6 °F /  33.1 °C 15.3 °F /  -9.3 °C 29.61in /  1002.6hPa Calm   2.0mph /  3.2km/h 6% 0.00in /  0mm 141.0 W/m2
18:23 91.0 °F /  32.8 °C 14.9 °F /  -9.5 °C 29.61in /  1002.6hPa Calm   5.0mph /  8km/h 6% 0.00in /  0mm 88.0 W/m2
18:29 90.3 °F /  32.4 °C 18.0 °F /  -7.8 °C 29.62in /  1002.9hPa South 0.9mph /  1.4km/h 9.0mph /  14.5km/h 7% 0.00in /  0mm 47.0 W/m2
18:34 89.8 °F /  32.1 °C 17.6 °F /  -8 °C 29.62in /  1002.9hPa SE 2.0mph /  3.2km/h 9.0mph /  14.5km/h 7% 0.00in /  0mm 30.0 W/m2
18:39 89.4 °F /  31.9 °C 17.2 °F /  -8.2 °C 29.62in /  1002.9hPa Calm   4.0mph /  6.4km/h 7% 0.00in /  0mm 30.0 W/m2
18:45 89.1 °F /  31.7 °C 17.1 °F /  -8.3 °C 29.62in /  1002.9hPa SE 2.0mph /  3.2km/h 9.0mph /  14.5km/h 7% 0.00in /  0mm 25.0 W/m2
18:50 88.5 °F /  31.4 °C 16.7 °F /  -8.5 °C 29.62in /  1002.9hPa SSE 4.0mph /  6.4km/h 5.0mph /  8km/h 7% 0.00in /  0mm 21.0 W/m2
18:56 88.0 °F /  31.1 °C 16.2 °F /  -8.8 °C 29.62in /  1002.9hPa SE 0.9mph /  1.4km/h 5.0mph /  8km/h 7% 0.00in /  0mm 16.0 W/m2
19:01 87.6 °F /  30.9 °C 16.0 °F /  -8.9 °C 29.62in /  1002.9hPa SSE 4.0mph /  6.4km/h 9.0mph /  14.5km/h 7% 0.00in /  0mm 12.0 W/m2
19:06 87.3 °F /  30.7 °C 15.6 °F /  -9.1 °C 29.62in /  1002.9hPa SE 2.0mph /  3.2km/h 8.0mph /  12.9km/h 7% 0.00in /  0mm 11.0 W/m2
19:12 86.7 °F /  30.4 °C 18.3 °F /  -7.6 °C 29.63in /  1003.3hPa Calm   2.0mph /  3.2km/h 8% 0.00in /  0mm 7.0 W/m2
19:17 86.4 °F /  30.2 °C 18.1 °F /  -7.7 °C 29.63in /  1003.3hPa South 2.0mph /  3.2km/h 7.0mph /  11.3km/h 8% 0.00in /  0mm 5.0 W/m2
19:22 85.8 °F /  29.9 °C 17.8 °F /  -7.9 °C 29.64in /  1003.6hPa Calm   5.0mph /  8km/h 8% 0.00in /  0mm 0.0 W/m2
19:27 85.5 °F /  29.7 °C 17.4 °F /  -8.1 °C 29.64in /  1003.6hPa SSE 0.9mph /  1.4km/h 4.0mph /  6.4km/h 8% 0.00in /  0mm 0.0 W/m2
19:32 84.9 °F /  29.4 °C 17.1 °F /  -8.3 °C 29.65in /  1003.9hPa SSW 4.0mph /  6.4km/h 7.0mph /  11.3km/h 8% 0.00in /  0mm 0.0 W/m2
19:37 84.6 °F /  29.2 °C 16.9 °F /  -8.4 °C 29.65in /  1003.9hPa Calm   6.0mph /  9.7km/h 8% 0.00in /  0mm 0.0 W/m2
19:42 84.2 °F /  29 °C 16.5 °F /  -8.6 °C 29.65in /  1003.9hPa SSW 2.9mph /  4.7km/h 5.0mph /  8km/h 8% 0.00in /  0mm 0.0 W/m2
19:48 83.7 °F /  28.7 °C 25.7 °F /  -3.5 °C 29.66in /  1004.3hPa SW 2.0mph /  3.2km/h 7.0mph /  11.3km/h 12% 0.00in /  0mm 0.0 W/m2
19:53 83.1 °F /  28.4 °C 27.1 °F /  -2.7 °C 29.66in /  1004.3hPa West 4.9mph /  7.9km/h 9.0mph /  14.5km/h 13% 0.00in /  0mm 0.0 W/m2
19:58 82.8 °F /  28.2 °C 27.0 °F /  -2.8 °C 29.67in /  1004.6hPa Calm   7.0mph /  11.3km/h 13% 0.00in /  0mm 0.0 W/m2
20:04 82.6 °F /  28.1 °C 26.8 °F /  -2.9 °C 29.67in /  1004.6hPa WSW 2.0mph /  3.2km/h 8.0mph /  12.9km/h 13% 0.00in /  0mm 0.0 W/m2
20:10 82.2 °F /  27.9 °C 26.4 °F /  -3.1 °C 29.67in /  1004.6hPa SW 4.0mph /  6.4km/h 6.0mph /  9.7km/h 13% 0.00in /  0mm 0.0 W/m2
20:15 82.0 °F /  27.8 °C 26.4 °F /  -3.1 °C 29.67in /  1004.6hPa South 0.9mph /  1.4km/h 2.0mph /  3.2km/h 13% 0.00in /  0mm 0.0 W/m2
20:20 81.9 °F /  27.7 °C 24.3 °F /  -4.3 °C 29.67in /  1004.6hPa SSW 0.9mph /  1.4km/h 2.0mph /  3.2km/h 12% 0.00in /  0mm 0.0 W/m2
20:25 81.7 °F /  27.6 °C 24.1 °F /  -4.4 °C 29.68in /  1005hPa Calm   3.0mph /  4.8km/h 12% 0.00in /  0mm 0.0 W/m2
20:30 81.3 °F /  27.4 °C 23.9 °F /  -4.5 °C 29.68in /  1005hPa SW 0.9mph /  1.4km/h 6.0mph /  9.7km/h 12% 0.00in /  0mm 0.0 W/m2
20:35 81.3 °F /  27.4 °C 21.7 °F /  -5.7 °C 29.68in /  1005hPa South 0.9mph /  1.4km/h 3.0mph /  4.8km/h 11% 0.00in /  0mm 0.0 W/m2
20:40 81.1 °F /  27.3 °C 21.6 °F /  -5.8 °C 29.69in /  1005.3hPa WSW 4.0mph /  6.4km/h 5.0mph /  8km/h 11% 0.00in /  0mm 0.0 W/m2
20:45 81.1 °F /  27.3 °C 19.4 °F /  -7 °C 29.69in /  1005.3hPa Calm   5.0mph /  8km/h 10% 0.00in /  0mm 0.0 W/m2
20:50 81.0 °F /  27.2 °C 19.2 °F /  -7.1 °C 29.70in /  1005.6hPa Calm   2.0mph /  3.2km/h 10% 0.00in /  0mm 0.0 W/m2
20:55 80.8 °F /  27.1 °C 23.4 °F /  -4.8 °C 29.70in /  1005.6hPa South 0.9mph /  1.4km/h 9.0mph /  14.5km/h 12% 0.00in /  0mm 0.0 W/m2
21:00 80.4 °F /  26.9 °C 23.2 °F /  -4.9 °C 29.70in /  1005.6hPa SSW 2.0mph /  3.2km/h 6.0mph /  9.7km/h 12% 0.00in /  0mm 0.0 W/m2
21:06 80.1 °F /  26.7 °C 24.8 °F /  -4 °C 29.70in /  1005.6hPa Calm   2.0mph /  3.2km/h 13% 0.00in /  0mm 0.0 W/m2
21:11 79.9 °F /  26.6 °C 26.4 °F /  -3.1 °C 29.71in /  1006hPa South 0.9mph /  1.4km/h 8.0mph /  12.9km/h 14% 0.00in /  0mm 0.0 W/m2
21:17 79.3 °F /  26.3 °C 27.7 °F /  -2.4 °C 29.71in /  1006hPa SSW 4.0mph /  6.4km/h 8.0mph /  12.9km/h 15% 0.00in /  0mm 0.0 W/m2
21:22 79.2 °F /  26.2 °C 27.5 °F /  -2.5 °C 29.71in /  1006hPa Calm   3.0mph /  4.8km/h 15% 0.00in /  0mm 0.0 W/m2
21:27 78.8 °F /  26 °C 25.5 °F /  -3.6 °C 29.71in /  1006hPa Calm   1.0mph /  1.6km/h 14% 0.00in /  0mm 0.0 W/m2
21:33 78.4 °F /  25.8 °C 25.3 °F /  -3.7 °C 29.71in /  1006hPa Calm   1.0mph /  1.6km/h 14% 0.00in /  0mm 0.0 W/m2
21:38 78.1 °F /  25.6 °C 26.6 °F /  -3 °C 29.72in /  1006.3hPa Calm   3.0mph /  4.8km/h 15% 0.00in /  0mm 0.0 W/m2
21:43 77.7 °F /  25.4 °C 27.9 °F /  -2.3 °C 29.71in /  1006hPa SSW 0.9mph /  1.4km/h 2.0mph /  3.2km/h 16% 0.00in /  0mm 0.0 W/m2
21:48 77.5 °F /  25.3 °C 27.9 °F /  -2.3 °C 29.72in /  1006.3hPa Calm     16% 0.00in /  0mm 0.0 W/m2
21:53 77.4 °F /  25.2 °C 27.7 °F /  -2.4 °C 29.72in /  1006.3hPa Calm   1.0mph /  1.6km/h 16% 0.00in /  0mm 0.0 W/m2
21:58 76.8 °F /  24.9 °C 28.8 °F /  -1.8 °C 29.72in /  1006.3hPa East 0.9mph /  1.4km/h 1.0mph /  1.6km/h 17% 0.00in /  0mm 0.0 W/m2
22:03 76.6 °F /  24.8 °C 28.6 °F /  -1.9 °C 29.72in /  1006.3hPa Calm   1.0mph /  1.6km/h 17% 0.00in /  0mm 0.0 W/m2
22:09 76.3 °F /  24.6 °C 28.2 °F /  -2.1 °C 29.72in /  1006.3hPa Calm   2.0mph /  3.2km/h 17% 0.00in /  0mm 0.0 W/m2
22:14 75.7 °F /  24.3 °C 29.3 °F /  -1.5 °C 29.73in /  1006.7hPa Calm   2.0mph /  3.2km/h 18% 0.00in /  0mm 0.0 W/m2
22:19 75.6 °F /  24.2 °C 29.1 °F /  -1.6 °C 29.73in /  1006.7hPa Calm   3.0mph /  4.8km/h 18% 0.00in /  0mm 0.0 W/m2
22:24 75.4 °F /  24.1 °C 28.9 °F /  -1.7 °C 29.73in /  1006.7hPa SSE 2.0mph /  3.2km/h 3.0mph /  4.8km/h 18% 0.00in /  0mm 0.0 W/m2
22:29 75.0 °F /  23.9 °C 30.0 °F /  -1.1 °C 29.73in /  1006.7hPa SSW 4.0mph /  6.4km/h 4.0mph /  6.4km/h 19% 0.00in /  0mm 0.0 W/m2
22:34 74.8 °F /  23.8 °C 29.8 °F /  -1.2 °C 29.74in /  1007hPa SW 2.0mph /  3.2km/h 4.0mph /  6.4km/h 19% 0.00in /  0mm 0.0 W/m2
22:39 74.8 °F /  23.8 °C 29.8 °F /  -1.2 °C 29.74in /  1007hPa WSW 0.9mph /  1.4km/h 3.0mph /  4.8km/h 19% 0.00in /  0mm 0.0 W/m2
22:44 74.7 °F /  23.7 °C 30.9 °F /  -0.6 °C 29.74in /  1007hPa Calm   1.0mph /  1.6km/h 20% 0.00in /  0mm 0.0 W/m2
22:49 74.7 °F /  23.7 °C 30.9 °F /  -0.6 °C 29.74in /  1007hPa Calm   1.0mph /  1.6km/h 20% 0.00in /  0mm 0.0 W/m2
22:54 74.5 °F /  23.6 °C 30.7 °F /  -0.7 °C 29.74in /  1007hPa WSW 2.0mph /  3.2km/h 6.0mph /  9.7km/h 20% 0.00in /  0mm 0.0 W/m2
23:00 74.1 °F /  23.4 °C 31.6 °F /  -0.2 °C 29.74in /  1007hPa Calm   1.0mph /  1.6km/h 21% 0.00in /  0mm 0.0 W/m2
23:06 73.9 °F /  23.3 °C 31.5 °F /  -0.3 °C 29.75in /  1007.3hPa Calm   3.0mph /  4.8km/h 21% 0.00in /  0mm 0.0 W/m2
23:11 73.8 °F /  23.2 °C 31.5 °F /  -0.3 °C 29.74in /  1007hPa Calm   1.0mph /  1.6km/h 21% 0.00in /  0mm 0.0 W/m2
23:16 73.6 °F /  23.1 °C 31.3 °F /  -0.4 °C 29.75in /  1007.3hPa Calm   1.0mph /  1.6km/h 21% 0.00in /  0mm 0.0 W/m2
23:21 73.2 °F /  22.9 °C 30.9 °F /  -0.6 °C 29.75in /  1007.3hPa SSE 0.9mph /  1.4km/h 2.0mph /  3.2km/h 21% 0.00in /  0mm 0.0 W/m2
23:26 73.0 °F /  22.8 °C 32.0 °F /  0 °C 29.75in /  1007.3hPa South 2.0mph /  3.2km/h 3.0mph /  4.8km/h 22% 0.00in /  0mm 0.0 W/m2
23:31 73.0 °F /  22.8 °C 32.0 °F /  0 °C 29.75in /  1007.3hPa Calm   5.0mph /  8km/h 22% 0.00in /  0mm 0.0 W/m2
23:36 73.0 °F /  22.8 °C 32.0 °F /  0 °C 29.75in /  1007.3hPa South 2.0mph /  3.2km/h 3.0mph /  4.8km/h 22% 0.00in /  0mm 0.0 W/m2
23:42 73.0 °F /  22.8 °C 32.0 °F /  0 °C 29.75in /  1007.3hPa Calm   4.0mph /  6.4km/h 22% 0.00in /  0mm 0.0 W/m2
23:47 72.9 °F /  22.7 °C 31.8 °F /  -0.1 °C 29.75in /  1007.3hPa SSW 4.0mph /  6.4km/h 4.0mph /  6.4km/h 22% 0.00in /  0mm 0.0 W/m2
23:52 72.9 °F /  22.7 °C 31.8 °F /  -0.1 °C 29.74in /  1007hPa Calm   2.0mph /  3.2km/h 22% 0.00in /  0mm 0.0 W/m2
23:57 72.7 °F /  22.6 °C 32.7 °F /  0.4 °C 29.74in /  1007hPa Calm   2.0mph /  3.2km/h 23% 0.00in /  0mm 0.0 W/m2
Olympia, Windhoek, Namibia
Compliments of Weather Underground - 3.25 mb